createdAt,value
2023-03-06T00:00:48.083Z,22.88
2023-03-06T00:04:48.234Z,22.87
2023-03-06T00:08:48.372Z,22.86
2023-03-06T00:12:48.493Z,22.87
2023-03-06T00:16:48.569Z,22.85
2023-03-06T00:20:48.670Z,22.83
2023-03-06T00:24:48.847Z,22.83
2023-03-06T00:28:48.977Z,22.83
2023-03-06T00:32:49.182Z,22.82
2023-03-06T00:36:49.196Z,22.81
2023-03-06T00:40:49.336Z,22.82
2023-03-06T00:44:49.480Z,22.80
2023-03-06T00:48:49.613Z,22.79
2023-03-06T00:52:49.737Z,22.79
2023-03-06T00:56:49.930Z,22.79
2023-03-06T01:00:50.108Z,22.78
2023-03-06T01:04:50.207Z,22.78
2023-03-06T01:08:50.320Z,22.76
2023-03-06T01:12:50.448Z,22.76
2023-03-06T01:16:50.638Z,22.75
2023-03-06T01:20:50.733Z,22.74
2023-03-06T01:24:50.866Z,22.74
2023-03-06T01:28:51.034Z,22.73
2023-03-06T01:32:51.167Z,22.73
2023-03-06T01:36:51.339Z,22.72
2023-03-06T01:40:51.461Z,22.72
2023-03-06T01:44:51.618Z,22.71
2023-03-06T01:48:51.792Z,22.71
2023-03-06T01:52:51.942Z,22.70
2023-03-06T01:56:52.054Z,22.69
2023-03-06T02:00:52.267Z,22.69
2023-03-06T02:04:52.432Z,22.68
2023-03-06T02:08:52.616Z,22.67
2023-03-06T02:12:52.783Z,22.67
2023-03-06T02:16:53.052Z,22.66
2023-03-06T02:20:53.092Z,22.66
2023-03-06T02:24:53.290Z,22.66
2023-03-06T02:28:53.488Z,22.65
2023-03-06T02:32:53.675Z,22.65
2023-03-06T02:36:53.877Z,22.62
2023-03-06T02:40:54.044Z,22.63
2023-03-06T02:44:54.234Z,22.62
2023-03-06T02:48:54.403Z,22.61
2023-03-06T02:52:54.638Z,22.60
2023-03-06T02:56:54.848Z,22.60
2023-03-06T03:00:55.062Z,22.60
2023-03-06T03:04:55.340Z,22.59
2023-03-06T03:08:55.501Z,22.59
2023-03-06T03:12:55.716Z,22.58
2023-03-06T03:16:55.912Z,22.57
2023-03-06T03:20:56.095Z,22.57
2023-03-06T03:24:56.374Z,22.57
2023-03-06T03:28:56.527Z,22.56
2023-03-06T03:32:56.805Z,22.56
2023-03-06T03:36:56.957Z,22.55
2023-03-06T03:40:57.199Z,22.54
2023-03-06T03:44:57.393Z,22.54
2023-03-06T03:48:57.592Z,22.52
2023-03-06T03:52:57.857Z,22.52
2023-03-06T03:56:58.052Z,22.52
2023-03-06T04:00:58.249Z,22.52
2023-03-06T04:04:58.556Z,22.50
2023-03-06T04:08:58.702Z,22.50
2023-03-06T04:12:58.915Z,22.50
2023-03-06T04:16:59.110Z,22.48
2023-03-06T04:20:59.402Z,22.49
2023-03-06T04:24:59.621Z,22.48
2023-03-06T04:28:59.845Z,22.47
2023-03-06T04:33:00.035Z,22.47
2023-03-06T04:37:00.262Z,22.47
2023-03-06T04:41:00.493Z,22.45
2023-03-06T04:45:00.750Z,22.45
2023-03-06T04:49:00.954Z,22.45
2023-03-06T04:53:01.189Z,22.44
2023-03-06T04:57:01.478Z,22.43
2023-03-06T05:01:01.730Z,22.42
2023-03-06T05:05:01.947Z,22.42
2023-03-06T05:09:02.220Z,22.42
2023-03-06T05:13:02.440Z,22.40
2023-03-06T05:17:02.705Z,22.40
2023-03-06T05:21:02.931Z,22.39
2023-03-06T05:25:03.199Z,22.39
2023-03-06T05:29:03.475Z,22.39
2023-03-06T05:33:03.690Z,22.38
2023-03-06T05:37:03.940Z,22.38
2023-03-06T05:41:04.174Z,22.37
2023-03-06T05:45:04.444Z,22.37
2023-03-06T05:49:04.732Z,22.36
2023-03-06T05:53:05.006Z,22.36
2023-03-06T05:57:05.247Z,22.35
2023-03-06T06:01:05.497Z,22.35
2023-03-06T06:05:05.785Z,22.35
2023-03-06T06:09:06.060Z,22.35
2023-03-06T06:13:06.250Z,22.35
2023-03-06T06:17:06.542Z,22.34
2023-03-06T06:21:06.798Z,22.35
2023-03-06T06:25:07.075Z,22.34
2023-03-06T06:29:07.288Z,22.34
2023-03-06T06:33:07.544Z,22.34
2023-03-06T06:37:07.828Z,22.31
2023-03-06T06:41:39.324Z,22.36
2023-03-06T06:45:09.076Z,22.44
2023-03-06T06:49:08.364Z,22.51
2023-03-06T06:53:08.852Z,22.62
2023-03-06T06:57:08.823Z,22.69
2023-03-06T07:01:08.698Z,22.82
2023-03-06T07:05:08.859Z,22.96
2023-03-06T07:09:08.831Z,23.06
2023-03-06T07:13:08.875Z,23.16
2023-03-06T07:17:08.798Z,23.24
2023-03-06T07:21:08.823Z,23.32
2023-03-06T07:25:08.934Z,23.41
2023-03-06T07:29:09.390Z,23.48
2023-03-06T07:33:09.053Z,23.54
2023-03-06T07:37:09.388Z,23.60
2023-03-06T07:41:08.946Z,23.68
2023-03-06T07:45:09.379Z,23.72
2023-03-06T07:49:08.796Z,23.71
2023-03-06T07:53:10.773Z,23.64
2023-03-06T07:57:08.869Z,23.56
2023-03-06T08:01:08.749Z,23.48
2023-03-06T08:05:08.970Z,23.43
2023-03-06T08:09:08.928Z,23.39
2023-03-06T08:13:09.399Z,23.36
2023-03-06T08:17:08.968Z,23.34
2023-03-06T08:21:08.986Z,23.33
2023-03-06T08:25:09.430Z,23.30
2023-03-06T08:29:08.954Z,23.32
2023-03-06T08:33:08.953Z,23.34
2023-03-06T08:37:08.999Z,23.35
2023-03-06T08:41:09.445Z,23.35
2023-03-06T08:45:09.400Z,23.33
2023-03-06T08:49:09.405Z,23.46
2023-03-06T08:53:09.132Z,23.56
2023-03-06T08:57:09.317Z,23.66
2023-03-06T09:01:09.893Z,23.74
2023-03-06T09:05:09.429Z,23.79
2023-03-06T09:09:09.399Z,23.82
2023-03-06T09:13:09.482Z,23.85
2023-03-06T09:17:09.345Z,23.89
2023-03-06T09:21:09.328Z,23.92
2023-03-06T09:25:09.331Z,23.94
2023-03-06T09:29:09.335Z,24.02
2023-03-06T09:33:09.321Z,24.01
2023-03-06T09:37:09.436Z,23.98
2023-03-06T09:41:09.255Z,24.02
2023-03-06T09:45:09.605Z,24.04
2023-03-06T09:49:09.421Z,24.10
2023-03-06T09:53:09.418Z,23.82
2023-03-06T09:57:09.427Z,23.76
2023-03-06T10:01:09.930Z,23.69
2023-03-06T10:05:09.609Z,23.40
2023-03-06T10:09:09.929Z,23.37
2023-03-06T10:13:09.631Z,23.37
2023-03-06T10:17:09.642Z,23.31
2023-03-06T10:21:19.128Z,23.07
2023-03-06T10:25:10.700Z,22.89
2023-03-06T10:29:09.952Z,22.75
2023-03-06T10:33:09.628Z,22.61
2023-03-06T10:37:09.930Z,22.54
2023-03-06T10:41:09.941Z,22.48
2023-03-06T10:45:10.490Z,21.24
2023-03-06T10:49:10.428Z,20.89
2023-03-06T10:53:10.328Z,21.17
2023-03-06T10:57:10.334Z,21.23
2023-03-06T11:01:10.969Z,21.41
2023-03-06T11:05:10.395Z,21.47
2023-03-06T11:09:10.439Z,21.49
2023-03-06T11:13:10.429Z,21.44
2023-03-06T11:17:10.457Z,21.45
2023-03-06T11:21:10.493Z,21.46
2023-03-06T11:25:10.474Z,21.45
2023-03-06T11:29:10.551Z,21.42
2023-03-06T11:33:10.488Z,21.39
2023-03-06T11:37:10.968Z,21.45
2023-03-06T11:41:10.504Z,21.62
2023-03-06T11:45:10.953Z,22.01
2023-03-06T11:49:10.600Z,22.38
2023-03-06T11:53:10.996Z,22.65
2023-03-06T11:57:10.841Z,22.87
2023-03-06T12:01:10.828Z,23.03
2023-03-06T12:05:10.880Z,23.19
2023-03-06T12:09:10.843Z,23.33
2023-03-06T12:13:11.003Z,23.42
2023-03-06T12:17:11.464Z,23.50
2023-03-06T12:21:11.145Z,23.59
2023-03-06T12:25:11.305Z,23.69
2023-03-06T12:29:11.617Z,23.75
2023-03-06T12:33:11.176Z,23.76
2023-03-06T12:37:11.489Z,23.70
2023-03-06T12:41:11.509Z,23.65
2023-03-06T12:45:11.011Z,23.60
2023-03-06T12:49:12.391Z,23.54
2023-03-06T12:53:10.903Z,23.51
2023-03-06T12:57:10.883Z,23.53
2023-03-06T13:01:10.824Z,23.54
2023-03-06T13:05:10.767Z,23.56
2023-03-06T13:09:10.716Z,23.58
2023-03-06T13:13:10.664Z,23.57
2023-03-06T13:17:10.638Z,23.57
2023-03-06T13:21:10.572Z,23.56
2023-03-06T13:25:11.004Z,23.54
2023-03-06T13:29:10.428Z,23.52
2023-03-06T13:33:10.393Z,23.50
2023-03-06T13:37:10.497Z,23.50
2023-03-06T13:41:10.227Z,23.48
2023-03-06T13:45:10.207Z,23.47
2023-03-06T13:49:10.141Z,23.46
2023-03-06T13:53:10.101Z,23.46
2023-03-06T13:57:10.151Z,23.43
2023-03-06T14:01:10.267Z,23.40
2023-03-06T14:05:10.220Z,22.61
2023-03-06T14:09:10.253Z,21.76
2023-03-06T14:13:10.404Z,21.41
2023-03-06T14:17:10.515Z,21.84
2023-03-06T14:21:10.607Z,22.20
2023-03-06T14:25:10.555Z,22.45
2023-03-06T14:29:10.506Z,22.63
2023-03-06T14:33:10.434Z,22.76
2023-03-06T14:37:10.353Z,22.83
2023-03-06T14:41:11.779Z,22.88
2023-03-06T14:45:10.234Z,22.93
2023-03-06T14:49:10.325Z,22.97
2023-03-06T14:53:10.146Z,22.99
2023-03-06T14:57:10.056Z,23.01
2023-03-06T15:01:10.000Z,23.01
2023-03-06T15:05:10.057Z,23.01
2023-03-06T15:09:09.881Z,23.02
2023-03-06T15:13:09.833Z,23.03
2023-03-06T15:17:10.045Z,23.03
2023-03-06T15:21:09.766Z,23.02
2023-03-06T15:25:10.061Z,23.02
2023-03-06T15:29:10.344Z,23.02
2023-03-06T15:33:09.518Z,23.02
2023-03-06T15:37:09.486Z,23.01
2023-03-06T15:41:09.381Z,23.00
2023-03-06T15:45:09.339Z,22.99
2023-03-06T15:49:09.255Z,23.02
2023-03-06T15:53:09.227Z,23.02
2023-03-06T15:57:09.163Z,23.03
2023-03-06T16:01:09.100Z,23.02
2023-03-06T16:05:08.984Z,23.03
2023-03-06T16:09:08.955Z,23.01
2023-03-06T16:13:08.855Z,22.99
2023-03-06T16:17:08.856Z,22.97
2023-03-06T16:21:08.858Z,22.96
2023-03-06T16:25:08.937Z,22.94
2023-03-06T16:29:09.043Z,22.94
2023-03-06T16:33:09.125Z,22.94
2023-03-06T16:37:09.207Z,22.93
2023-03-06T16:41:09.283Z,22.93
2023-03-06T16:45:09.391Z,22.91
2023-03-06T16:49:09.436Z,22.91
2023-03-06T16:53:09.537Z,22.90
2023-03-06T16:57:09.555Z,22.89
2023-03-06T17:01:10.089Z,22.88
2023-03-06T17:05:09.649Z,22.88
2023-03-06T17:09:09.675Z,22.87
2023-03-06T17:13:09.738Z,22.87
2023-03-06T17:17:09.864Z,22.87
2023-03-06T17:21:09.926Z,22.85
2023-03-06T17:25:10.038Z,22.85
2023-03-06T17:29:10.085Z,22.85
2023-03-06T17:33:10.160Z,22.84
2023-03-06T17:37:10.298Z,22.83
2023-03-06T17:41:10.322Z,22.82
2023-03-06T17:45:10.425Z,22.82
2023-03-06T17:49:10.537Z,22.81
2023-03-06T17:53:10.607Z,22.81
2023-03-06T17:57:10.780Z,22.79
2023-03-06T18:01:10.848Z,22.79
2023-03-06T18:05:10.991Z,22.78
2023-03-06T18:09:11.208Z,22.77
2023-03-06T18:13:11.183Z,22.76
2023-03-06T18:17:11.316Z,22.75
2023-03-06T18:21:11.415Z,22.75
2023-03-06T18:25:11.524Z,22.73
2023-03-06T18:29:11.659Z,22.73
2023-03-06T18:33:11.803Z,22.73
2023-03-06T18:37:11.883Z,22.72
2023-03-06T18:41:12.041Z,22.72
2023-03-06T18:45:12.131Z,22.71
2023-03-06T18:49:12.241Z,22.70
2023-03-06T18:53:12.405Z,22.70
2023-03-06T18:57:12.532Z,22.69
2023-03-06T19:01:12.755Z,22.68
2023-03-06T19:05:12.855Z,22.67
2023-03-06T19:09:12.987Z,22.67
2023-03-06T19:13:13.136Z,22.66
2023-03-06T19:17:13.287Z,22.66
2023-03-06T19:21:13.416Z,22.65
2023-03-06T19:25:13.585Z,22.64
2023-03-06T19:29:13.742Z,22.63
2023-03-06T19:33:13.923Z,22.62
2023-03-06T19:37:14.093Z,22.61
2023-03-06T19:41:14.281Z,22.61
2023-03-06T19:45:14.502Z,22.60
2023-03-06T19:49:14.642Z,22.60
2023-03-06T19:53:14.817Z,22.59
2023-03-06T19:57:15.031Z,22.59
2023-03-06T20:01:15.216Z,22.58
2023-03-06T20:05:15.389Z,22.58
2023-03-06T20:09:15.543Z,22.58
2023-03-06T20:13:15.700Z,22.57
2023-03-06T20:17:15.904Z,22.56
2023-03-06T20:21:16.092Z,22.55
2023-03-06T20:25:16.280Z,22.56
2023-03-06T20:29:16.430Z,22.56
2023-03-06T20:33:16.636Z,22.55
2023-03-06T20:37:16.835Z,22.55
2023-03-06T20:41:17.028Z,22.55
2023-03-06T20:45:17.219Z,22.53
2023-03-06T20:49:17.412Z,22.53
2023-03-06T20:53:17.608Z,22.52
2023-03-06T20:57:17.813Z,22.52
2023-03-06T21:01:18.029Z,22.51
2023-03-06T21:05:18.193Z,22.51
2023-03-06T21:09:18.403Z,22.50
2023-03-06T21:13:18.632Z,22.49
2023-03-06T21:17:18.782Z,22.49
2023-03-06T21:21:18.998Z,22.48
2023-03-06T21:25:19.206Z,22.47
2023-03-06T21:29:19.421Z,22.47
2023-03-06T21:33:19.625Z,22.47
2023-03-06T21:37:19.813Z,22.47
2023-03-06T21:41:20.059Z,22.46
2023-03-06T21:45:20.321Z,22.46
2023-03-06T21:49:20.584Z,22.45
2023-03-06T21:53:20.858Z,22.44
2023-03-06T21:57:20.880Z,22.44
2023-03-06T22:01:20.965Z,22.44
2023-03-06T22:05:20.939Z,22.43
2023-03-06T22:09:20.971Z,22.43
2023-03-06T22:13:20.997Z,22.43
2023-03-06T22:17:21.023Z,22.42
2023-03-06T22:21:21.047Z,22.41
2023-03-06T22:25:21.031Z,22.41
2023-03-06T22:29:21.070Z,22.41
2023-03-06T22:33:21.089Z,22.41
2023-03-06T22:37:21.119Z,22.40
2023-03-06T22:41:21.182Z,22.41
2023-03-06T22:45:21.448Z,22.39
2023-03-06T22:49:21.709Z,22.39
2023-03-06T22:53:21.919Z,22.39
2023-03-06T22:57:22.174Z,22.38
2023-03-06T23:01:22.509Z,22.37
2023-03-06T23:05:22.682Z,22.38
2023-03-06T23:09:22.904Z,22.36
2023-03-06T23:13:23.130Z,22.36
2023-03-06T23:17:23.397Z,22.35
2023-03-06T23:21:23.648Z,22.35
2023-03-06T23:25:23.914Z,22.35
2023-03-06T23:29:24.143Z,22.34
2023-03-06T23:33:24.409Z,22.34
2023-03-06T23:37:24.673Z,22.33
2023-03-06T23:41:24.919Z,22.33
2023-03-06T23:45:25.136Z,22.32
2023-03-06T23:49:25.408Z,22.32
2023-03-06T23:53:25.655Z,22.31
2023-03-06T23:57:25.929Z,22.31
